AirNav   Pilot Hours Calculator
 
 1072 users online  

KEGQ Emmetsburg Municipal Airport
Emmetsburg, Iowa, USA

GOING TO EMMETSBURG?


FAA INFORMATION EFFECTIVE 20 JUNE 2019

Location

FAA Identifier: EGQ
Lat/Long: 43-06-07.4000N / 094-42-16.3000W
43-06.123333N / 094-42.271667W
43.1020556 / -94.7045278
(estimated)
Elevation: 1206.1 ft. / 367.6 m (surveyed)
Variation: 04E (2000)
From city: 1 mile SW of EMMETSBURG, IA
Time zone: UTC -5 (UTC -6 during Standard Time)
Zip code: 50536

Airport Operations

Airport use: Open to the public
Activation date: 03/1945
Control tower: no
ARTCC: MINNEAPOLIS CENTER
FSS: FORT DODGE FLIGHT SERVICE STATION
NOTAMs facility: FOD (NOTAM-D service available)
Attendance: IRREGULAR
Wind indicator: lighted
Segmented circle: no
Lights: ACTVT MIRL RY 13/31, REIL & PAPI RYS 13 & 31 - CTAF.
Beacon: white-green (lighted land airport)
Operates sunset to sunrise.

Airport Communications

CTAF/UNICOM: 122.8
WX ASOS at EST (18 nm N): 121.425 (712-362-7250)
WX AWOS-3 at AXA (19 nm E): 118.475 (515-295-9634)
  • APCH/DEP SERVICE PROVIDED BY MINNEAPOLIS ARTCC ON FREQS 127.75/257.7 (FAIRMONT RCAG).

Nearby radio navigation aids

VOR radial/distance  VOR name  Freq  Var
SPWr094/22.0SPENCER VOR/DME110.0005E
FODr322/34.5FORT DODGE VORTAC113.5007E

 
NDB name  Hdg/Dist  Freq  Var  ID
EMMETSBURGat field41004EEGQ . --. --.-
PUFF173/15.034501EPUF .--. ..- ..-.
POCAHONTAS352/21.542802EPOH .--. --- ....

Airport Services

Fuel available: 100LL
Parking: hangars and tiedowns
Airframe service: NONE
Powerplant service: NONE
Bottled oxygen: NONE
Bulk oxygen: NONE

Runway Information

Runway 13/31

Dimensions: 3401 x 60 ft. / 1037 x 18 m
Surface: concrete, in good condition
Weight bearing capacity: 
Single wheel: 29.0
Runway edge lights: medium intensity
RUNWAY 13  RUNWAY 31
Latitude: 43-06.427827N43-06.021400N
Longitude: 094-42.701945W094-42.176483W
Elevation: 1205.6 ft.1205.1 ft.
Traffic pattern: leftleft
Runway heading: 133 magnetic, 137 true313 magnetic, 317 true
Markings: nonprecision, in good conditionnonprecision, in good condition
Visual slope indicator: 4-light PAPI on left (4.00 degrees glide path)4-light PAPI on left (3.00 degrees glide path)
Runway end identifier lights: yesyes
Touchdown point: yes, no lightsyes, no lights
Obstructions: 52 ft. trees, 464 ft. from runway, 162 ft. right of centerline, 5:1 slope to clear72 ft. tree, 1384 ft. from runway, 266 ft. left of centerline, 16:1 slope to clear

Runway 4/22

Dimensions: 2537 x 120 ft. / 773 x 37 m
Surface: turf, in fair condition
Runway edge markings: 04/22 THRS & SIDES MARKED WITH YELLOW CONES.
RUNWAY 4  RUNWAY 22
Latitude: 43-05.884752N43-06.181132N
Longitude: 094-42.396565W094-41.994978W
Elevation: 1201.6 ft.1204.9 ft.
Traffic pattern: leftleft
Runway heading: 041 magnetic, 045 true221 magnetic, 225 true
Touchdown point: yes, no lightsyes, no lights
Obstructions: 11 ft. road, 230 ft. from runway, 20:1 slope to clear17 ft. road, 340 ft. from runway, 20:1 slope to clear

Runway 17/35

Dimensions: 2157 x 150 ft. / 657 x 46 m
Surface: turf, in fair condition
Runway edge markings: 17/35 THLDS & SIDES MARKED WITH YELLOW CONES.
RUNWAY 17  RUNWAY 35
Latitude: 43-06.248090N43-05.893000N
Longitude: 094-42.094718W094-42.098217W
Elevation: 1203.5 ft.1201.5 ft.
Traffic pattern: leftleft
Runway heading: 176 magnetic, 180 true356 magnetic, 000 true
Touchdown point: yes, no lightsyes, no lights
Obstructions: 11 ft. brush, 190 ft. from runway, 35 ft. left of centerline, 17:1 slope to clear28 ft. tree, 348 ft. from runway, 12:1 slope to clear

Airport Ownership and Management from official FAA records

Ownership: Publicly-owned
Owner: CITY OF EMMETSBURG
2021 MAIN
EMMETSBURG, IA 50536
Phone 712-852-4030
Manager: KIMBERLY KIBBIE
3775 450TH STREET
EMMETSBURG, IA 50536
Phone 712-852-4030

Airport Operational Statistics

Aircraft based on the field: 9
Single engine airplanes: 6
Multi engine airplanes: 2
Ultralights: 1
    
Aircraft operations: avg 43/week *
90% local general aviation
10% transient general aviation
* for 12-month period ending 27 September 2017

Additional Remarks

FOR CD CTC MINNEAPOLIS ARTCC AT 651-463-5588.

Instrument Procedures

NOTE: All procedures below are presented as PDF files. If you need a reader for these files, you should download the free Adobe Reader.

NOT FOR NAVIGATION. Please procure official charts for flight.
FAA instrument procedures published for use from 20 June 2019 at 0901Z to 19 July 2019 at 0900Z.

 
IAPs - Instrument Approach Procedures
RNAV (GPS) RWY 13   download (190KB)
RNAV (GPS) RWY 31   download (186KB)
NDB RWY 13   download (178KB)
NDB RWY 31   download (164KB)
NOTE: Special Take-Off Minimums/Departure Procedures apply   download (158KB)

Other nearby airports with instrument procedures:

KEST - Estherville Municipal Airport (18 nm N)
KAXA - Algona Municipal Airport (19 nm E)
KPOH - Pocahontas Municipal Airport (22 nm S)
KSPW - Spencer Municipal Airport (22 nm W)
4D8 - Fuller Airport (24 nm NW)
 
Loc | Ops | Rwys | IFR | FBO | Links
Com | Nav | Svcs | Stats | Notes
Area around KEGQ (Emmetsburg Municipal Airport)
 
Road maps at: MapQuest Bing Google
 
Aerial photo
WARNING: Photo may not be current or correct
Aerial photo of KEGQ (Emmetsburg Municipal Airport)
Photo taken 23-Jun-2010

Do you have a better or more recent aerial photo of Emmetsburg Municipal Airport that you would like to share? If so, please send us your photo.

 
Sectional chart

 
Airport distance calculator
Flying to Emmetsburg Municipal Airport? Find the distance to fly.

From to KEGQ

Sunrise and sunset
Times for 20-Jun-2019
 Local
(UTC-5)
 Zulu
(UTC)
Morning civil twilight05:0510:05
Sunrise05:4010:40
Sunset21:0102:01
Evening civil twilight21:3602:36

Current date and time
Zulu (UTC)  20-Jun-2019 23:22:22
Local (UTC-5)  20-Jun-2019 18:22:22
 
METAR
KEST 
18nm N 
202252Z AUTO 16013KT 10SM FEW035 SCT042 BKN055 23/16 A2975 RMK AO2 SLP070 T02280161
KAXA 
19nm E 
202255Z AUTO 15008KT 9SM FEW060 FEW100 22/18 A2977 RMK A01
KSPW 
23nm W 
202253Z AUTO 18012G18KT 10SM FEW036 SCT048 BKN060 26/18 A2975 RMK AO2 SLP067 T02610178
KMJQ 
34nm N 
202255Z AUTO 19010KT 10SM SCT100 SCT120 23/14 A2975 RMK AO2 PWINO
KFRM 
34nm N 
202256Z AUTO 16012KT 10SM FEW033 23/16 A2976 RMK AO2 SLP077 T02280161
TAF
KFOD 
42nm SE 
201734Z 2018/2118 15009KT P6SM VCSH SCT035 BKN060 FM210200 11006KT P6SM BKN080 FM210900 13008KT P6SM VCSH BKN025 FM211300 13010G18KT P6SM VCTS OVC015CB
NOTAMs
Click for the latest NOTAMs
NOTAMs are issued by the DoD/FAA and will open in a separate window not controlled by AirNav.

 

 
 

FBO, Fuel Providers, and Aircraft Ground Support

  
 Business Name 
 
 Contact 
 
 Services / Description 
 
Fuel Prices
 
Comments
  
Emmetsburg Municipal Airport 712-852-3810
no information available

If you are affiliated with Emmetsburg Municipal Airport and would like to show here your services, contact info, web link, logo, and more, click here
100LL
SS $4.50 
 Updated 02-Jan-2018
 
   write
SS=Self service
Update Fuel Prices
 

Would you like to see your business listed on this page?

 If your business provides an interesting product or service to pilots, flight crews, aircraft, or users of the Emmetsburg Municipal Airport, you should consider listing it here.  To start the listing process, click on the button below
 
Add a business
 

Other Pages about Emmetsburg Municipal Airport

Page from the Iowa Airport Directory
 
Update a link
 
Copyright © AirNav, LLC. All rights reserved. Privacy Policy  Contact